Time;durP1;ratioP1;P1;durP2;ratioP2;P2;SDS_P1;SDS_P2;PMS_P1;PMS_P2;Temp;Humidity;BMP_temperature;BMP_pressure;BME280_temperature;BME280_humidity;BME280_pressure;Samples;Min_cycle;Max_cycle;Signal;HPM_P1;HPM_P2
2021/03/12 00:00:55;;;;;;;19.32;8.35;;;;;;;-10.44;79.78;102173.06;1807436;79;21088;-87
2021/03/12 00:03:31;;;;;;;18.90;7.15;;;;;;;-10.51;79.62;102180.81;1808779;79;21159;-87
2021/03/12 00:06:11;;;;;;;17.10;6.53;;;;;;;-10.59;79.69;102179.25;1805493;79;21128;-87
2021/03/12 00:08:44;;;;;;;17.12;6.75;;;;;;;-10.66;80.07;102176.93;1809012;78;21151;-87
2021/03/12 00:11:12;;;;;;;19.98;7.53;;;;;;;-10.69;80.37;102167.99;1808948;79;21187;-87
2021/03/12 00:13:40;;;;;;;24.85;8.70;;;;;;;-10.73;79.96;102164.04;1808687;79;21144;-87
2021/03/12 00:16:09;;;;;;;17.00;7.45;;;;;;;-10.77;79.63;102160.97;1808840;78;21639;-87
2021/03/12 00:18:42;;;;;;;17.42;7.67;;;;;;;-10.84;79.99;102153.57;1808867;79;21533;-87
2021/03/12 00:21:12;;;;;;;13.20;6.47;;;;;;;-10.87;80.21;102155.58;1808813;78;21053;-87
2021/03/12 00:23:42;;;;;;;16.25;6.87;;;;;;;-10.91;80.44;102158.77;1809136;79;21230;-88
2021/03/12 00:26:10;;;;;;;15.13;6.60;;;;;;;-10.95;80.44;102153.17;1808750;79;21088;-87
2021/03/12 00:28:39;;;;;;;14.25;5.67;;;;;;;-11.00;80.44;102152.99;1808821;78;21136;-87
2021/03/12 00:31:08;;;;;;;17.15;6.65;;;;;;;-11.01;80.86;102149.13;1808831;79;21376;-87
2021/03/12 00:33:36;;;;;;;16.05;6.42;;;;;;;-11.03;81.06;102143.20;1809300;78;21128;-87
2021/03/12 00:36:08;;;;;;;17.92;7.75;;;;;;;-11.05;81.32;102141.87;1724536;81;22306;-87
2021/03/12 00:38:37;;;;;;;;;;;;;;;-11.07;81.64;102141.36;1779191;78;21061;-87
2021/03/12 00:41:08;;;;;;;13.70;6.45;;;;;;;-11.07;82.07;102140.98;1770279;79;20221;-87
2021/03/12 00:43:47;;;;;;;17.05;7.00;;;;;;;-11.04;82.58;102133.94;1872684;76;22177;-88
2021/03/12 00:46:20;;;;;;;17.32;7.45;;;;;;;-11.12;82.83;102137.02;1836121;77;21375;-86
2021/03/12 00:48:48;;;;;;;19.10;7.28;;;;;;;-11.14;83.19;102131.06;1840781;77;21164;-87
2021/03/12 00:51:16;;;;;;;24.43;8.23;;;;;;;-11.15;83.25;102136.05;1840688;77;21148;-87
2021/03/12 00:53:55;;;;;;;20.85;9.23;;;;;;;-11.18;83.48;102133.02;1836321;77;21426;-87
2021/03/12 00:56:23;;;;;;;21.05;7.70;;;;;;;-11.19;83.63;102124.13;1840809;78;21101;-87
2021/03/12 00:58:52;;;;;;;22.40;8.38;;;;;;;-11.22;83.96;102122.36;1840805;77;21574;-87
2021/03/12 01:01:24;;;;;;;17.02;6.37;;;;;;;-11.23;84.13;102121.05;1840765;77;21236;-87
2021/03/12 01:03:52;;;;;;;16.67;6.83;;;;;;;-11.27;84.35;102118.82;1840662;77;21105;-88
2021/03/12 01:06:20;;;;;;;14.28;6.37;;;;;;;-11.26;84.83;102120.55;1840586;77;21097;-88
2021/03/12 01:08:51;;;;;;;19.92;7.97;;;;;;;-11.29;84.68;102116.64;1836121;77;21062;-88
2021/03/12 01:11:23;;;;;;;18.35;6.65;;;;;;;-11.30;84.83;102117.05;1836519;77;21144;-87
2021/03/12 01:13:51;;;;;;;16.67;7.00;;;;;;;-11.30;85.17;102112.41;1810772;77;22267;-87
2021/03/12 01:16:26;;;;;;;16.75;7.15;;;;;;;-11.30;85.26;102112.02;1840669;77;21157;-87
2021/03/12 01:19:00;;;;;;;15.10;7.15;;;;;;;-11.30;85.51;102117.05;1836203;77;21153;-87
2021/03/12 01:21:29;;;;;;;16.02;6.83;;;;;;;-11.31;85.43;102109.42;1836285;77;21164;-87
2021/03/12 01:23:57;;;;;;;17.17;7.15;;;;;;;-11.33;85.80;102105.98;1807179;77;21094;-88
2021/03/12 01:26:33;;;;;;;15.40;6.85;;;;;;;-11.35;85.97;102103.83;1840873;77;22319;-88
2021/03/12 01:29:06;;;;;;;16.30;6.10;;;;;;;-11.36;86.05;102103.37;1820268;78;21165;-87
2021/03/12 01:31:39;;;;;;;14.63;7.10;;;;;;;-11.39;86.28;102108.27;1803251;78;21113;-87
2021/03/12 01:34:09;;;;;;;11.68;6.03;;;;;;;-11.39;86.69;102101.98;1803545;78;21172;-87
2021/03/12 01:36:40;;;;;;;13.22;6.50;;;;;;;-11.41;86.72;102097.74;1807748;78;21164;-87
2021/03/12 01:39:08;;;;;;;18.15;7.40;;;;;;;-11.45;86.77;102099.69;1807626;78;21587;-87
2021/03/12 01:41:38;;;;;;;19.20;7.60;;;;;;;-11.48;87.13;102094.53;1839177;77;21608;-87
2021/03/12 01:44:19;;;;;;;;;;;;;;;-11.51;87.31;102101.97;1763742;80;21170;-87
2021/03/12 01:46:48;;;;;;;26.85;10.35;;;;;;;-11.53;87.50;102092.25;1798536;78;20241;-87
2021/03/12 01:49:17;;;;;;;18.85;8.05;;;;;;;-11.56;87.66;102090.86;1798898;78;21554;-87
2021/03/12 01:51:47;;;;;;;21.45;7.67;;;;;;;-11.59;87.89;102092.02;1798870;78;21492;-87
2021/03/12 01:54:16;;;;;;;21.80;7.67;;;;;;;-11.59;88.00;102094.52;1782682;79;21222;-87
2021/03/12 01:56:44;;;;;;;16.05;6.90;;;;;;;-11.62;88.28;102091.88;1798358;78;21170;-87
2021/03/12 01:59:32;;;;;;;21.60;8.75;;;;;;;-11.59;88.51;102089.50;1889190;75;22376;-86
2021/03/12 02:02:02;;;;;;;24.82;8.95;;;;;;;-11.66;88.74;102084.61;1855294;77;20938;-87
2021/03/12 02:04:34;;;;;;;17.30;7.97;;;;;;;-11.68;88.83;102082.84;1857165;77;22096;-87
2021/03/12 02:07:05;;;;;;;15.68;7.28;;;;;;;-11.75;89.19;102083.86;1848700;76;21187;-87
2021/03/12 02:09:35;;;;;;;17.60;6.85;;;;;;;-11.78;89.50;102087.49;1833338;77;21124;-87
2021/03/12 02:12:26;;;;;;;15.90;7.03;;;;;;;-11.80;89.83;102090.33;1835961;77;21096;-87
2021/03/12 02:15:12;;;;;;;16.07;5.95;;;;;;;-11.80;90.19;102085.72;1780160;78;21155;-87
2021/03/12 02:17:49;;;;;;;18.42;7.80;;;;;;;-11.82;90.34;102089.44;1857644;77;21360;-88
2021/03/12 02:20:54;;;;;;;17.92;8.35;;;;;;;-11.88;90.44;102085.39;1850243;77;21125;-88
2021/03/12 02:23:55;;;;;;;17.60;6.85;;;;;;;-11.94;90.53;102088.92;1789292;79;21135;-88
2021/03/12 02:26:47;;;;;;;14.53;6.50;;;;;;;-11.96;90.95;102087.98;1821270;77;21107;-86
2021/03/12 02:29:22;;;;;;;16.00;6.20;;;;;;;-11.99;91.19;102089.17;1853909;77;21147;-88
2021/03/12 02:31:53;;;;;;;17.10;6.92;;;;;;;-11.98;91.43;102094.66;1856421;77;22133;-87
2021/03/12 02:34:26;;;;;;;19.90;7.92;;;;;;;-11.98;91.40;102100.94;1856167;77;21172;-87
2021/03/12 02:37:00;;;;;;;15.60;6.80;;;;;;;-12.01;91.50;102100.80;1854838;77;21160;-88
2021/03/12 02:39:32;;;;;;;18.73;7.75;;;;;;;-12.06;91.56;102094.33;1860020;77;21152;-88
2021/03/12 02:42:03;;;;;;;18.50;6.85;;;;;;;-12.11;91.73;102092.88;1860145;77;21568;-88
2021/03/12 02:44:33;;;;;;;14.78;6.17;;;;;;;-12.13;92.05;102099.48;1855118;77;21207;-88
2021/03/12 02:47:08;;;;;;;17.65;6.72;;;;;;;-12.14;92.28;102104.45;1855198;77;21065;-88
2021/03/12 02:49:37;;;;;;;22.20;7.83;;;;;;;-12.16;92.57;102098.49;1853236;77;21171;-88
2021/03/12 02:52:06;;;;;;;19.17;7.72;;;;;;;-12.17;92.53;102101.42;1859840;77;21148;-88
2021/03/12 02:54:36;;;;;;;18.00;7.33;;;;;;;-12.20;92.62;102108.81;1860137;77;21092;-88
2021/03/12 02:57:06;;;;;;;15.53;6.53;;;;;;;-12.21;92.65;102097.05;1860251;77;22274;-88
2021/03/12 02:59:34;;;;;;;17.37;7.35;;;;;;;-12.25;92.65;102108.61;1862758;77;21155;-88
2021/03/12 03:02:13;;;;;;;17.35;7.35;;;;;;;-12.27;92.75;102111.48;1858245;77;21582;-87
2021/03/12 03:04:47;;;;;;;19.55;7.05;;;;;;;-12.27;92.77;102113.99;1858605;77;21191;-88
2021/03/12 03:07:19;;;;;;;14.03;6.25;;;;;;;-12.27;92.68;102127.80;1859075;77;21592;-87
2021/03/12 03:09:51;;;;;;;14.68;6.45;;;;;;;-12.29;92.70;102130.63;1863020;77;21341;-88
2021/03/12 03:12:24;;;;;;;15.45;4.85;;;;;;;-12.31;92.76;102121.33;1831460;77;21101;-88
2021/03/12 03:14:59;;;;;;;15.53;5.83;;;;;;;-12.33;93.17;102123.75;1857964;76;21036;-86
2021/03/12 03:17:29;;;;;;;18.25;7.28;;;;;;;-12.33;93.42;102121.23;1823445;77;21184;-87
2021/03/12 03:19:58;;;;;;;12.30;4.80;;;;;;;-12.35;93.53;102106.91;1862926;77;21559;-87
2021/03/12 03:22:28;;;;;;;;;;;;;;;-12.39;93.53;102101.77;1865435;76;22157;-87
2021/03/12 03:24:56;;;;;;;15.28;4.78;;;;;;;-12.40;93.70;102110.47;1862673;77;20608;-87
2021/03/12 03:27:25;;;;;;;15.25;6.15;;;;;;;-12.41;94.15;102111.25;1862676;77;21635;-87
2021/03/12 03:29:55;;;;;;;14.38;6.20;;;;;;;-12.40;94.47;102107.58;1841619;76;21599;-87
2021/03/12 03:32:22;;;;;;;20.72;6.78;;;;;;;-12.42;94.69;102116.69;1778887;80;21107;-87
2021/03/12 03:34:51;;;;;;;18.10;6.75;;;;;;;-12.41;95.12;102125.94;1759344;81;21440;-87
2021/03/12 03:37:20;;;;;;;14.05;7.00;;;;;;;-12.41;95.41;102119.66;1789415;78;21179;-87
2021/03/12 03:39:48;;;;;;;28.80;7.05;;;;;;;-12.40;95.59;102107.58;1759378;81;21190;-87
2021/03/12 03:42:18;;;;;;;19.10;8.03;;;;;;;-12.40;95.46;102107.95;1763519;80;21618;-87
2021/03/12 03:44:48;;;;;;;16.02;7.55;;;;;;;-12.41;95.54;102113.77;1777447;80;21140;-87
2021/03/12 03:47:18;;;;;;;18.55;7.65;;;;;;;-12.42;95.74;102110.41;1728506;81;21514;-87
2021/03/12 03:49:48;;;;;;;16.80;7.45;;;;;;;-12.43;95.51;102107.43;1792448;80;21088;-87
2021/03/12 03:52:19;;;;;;;19.95;7.42;;;;;;;-12.41;95.68;102108.75;1792335;80;21148;-87
2021/03/12 03:54:52;;;;;;;17.20;6.97;;;;;;;-12.42;95.44;102101.63;1785215;80;21219;-87
2021/03/12 03:57:24;;;;;;;17.23;7.42;;;;;;;-12.43;95.49;102104.08;1792364;80;21568;-87
2021/03/12 03:59:55;;;;;;;17.98;7.05;;;;;;;-12.44;95.48;102104.45;1792280;79;21480;-87
2021/03/12 04:02:24;;;;;;;20.35;6.92;;;;;;;-12.45;95.57;102110.27;1792363;80;21179;-87
2021/03/12 04:04:53;;;;;;;21.07;7.70;;;;;;;-12.47;95.97;102111.00;1756637;81;21183;-88
2021/03/12 04:07:24;;;;;;;;;;;;;;;-12.47;96.16;102113.12;1792274;80;21195;-88
2021/03/12 04:09:53;;;;;;;21.82;8.95;;;;;;;-12.45;96.20;102115.28;1785379;80;20265;-87
2021/03/12 04:12:24;;;;;;;24.87;11.12;;;;;;;-12.47;96.51;102119.41;1727160;81;21273;-87
2021/03/12 04:14:55;;;;;;;23.85;8.33;;;;;;;-12.45;97.06;102126.99;1788057;78;21084;-87
2021/03/12 04:17:24;;;;;;;18.37;7.85;;;;;;;-12.39;97.59;102130.64;1811416;78;21126;-87
2021/03/12 04:19:55;;;;;;;27.75;9.13;;;;;;;-12.37;97.55;102127.78;1824005;78;21151;-89
2021/03/12 04:22:30;;;;;;;23.00;9.45;;;;;;;-12.29;97.61;102128.50;1816924;79;21123;-88
2021/03/12 04:25:01;;;;;;;22.73;8.83;;;;;;;-12.26;97.20;102116.09;1785649;79;21588;-89
2021/03/12 04:27:31;;;;;;;24.40;8.93;;;;;;;-12.25;96.83;102114.89;1816606;79;21104;-87
2021/03/12 04:30:04;;;;;;;23.10;9.00;;;;;;;-12.25;96.54;102103.59;1787401;79;21535;-89
2021/03/12 04:32:38;;;;;;;27.50;9.45;;;;;;;-12.22;96.07;102102.89;1817074;79;21285;-87
2021/03/12 04:35:08;;;;;;;23.30;9.50;;;;;;;-12.23;96.02;102104.94;1782666;78;21226;-87
2021/03/12 04:37:39;;;;;;;27.35;8.68;;;;;;;-12.18;96.15;102103.47;1801219;78;21634;-87
2021/03/12 04:40:10;;;;;;;26.23;10.55;;;;;;;-12.10;100.00;102107.57;1789775;78;21410;-87
2021/03/12 04:42:42;;;;;;;22.75;8.85;;;;;;;-11.60;100.00;102115.43;1778498;80;21150;-85
2021/03/12 04:45:12;;;;;;;26.00;8.83;;;;;;;-11.30;100.00;102123.34;1759762;80;21198;-85
2021/03/12 04:47:43;;;;;;;29.92;9.68;;;;;;;-11.07;100.00;102118.71;1790551;79;21234;-86
2021/03/12 04:50:13;;;;;;;22.07;8.35;;;;;;;-10.90;100.00;102113.08;1788874;80;21199;-86
2021/03/12 04:52:42;;;;;;;36.40;10.32;;;;;;;-10.58;100.00;102107.11;1788979;80;21182;-86
2021/03/12 04:55:13;;;;;;;18.73;8.38;;;;;;;-10.35;100.00;102107.48;1788964;80;21135;-85
2021/03/12 04:57:42;;;;;;;;;;;;;;;-10.26;100.00;102110.72;1823492;78;21571;-86
2021/03/12 05:00:13;;;;;;;19.45;7.10;;;;;;;-10.29;100.00;102114.38;1800289;78;20216;-86
2021/03/12 05:02:57;;;;;;;18.75;10.55;;;;;;;-10.46;99.90;102102.49;1872545;75;28391;-84
2021/03/12 05:05:27;;;;;;;22.40;9.10;;;;;;;-10.64;97.64;102107.73;1843494;77;21124;-84
2021/03/12 05:07:56;;;;;;;19.67;7.95;;;;;;;-10.66;96.59;102101.78;1826108;78;21358;-84
2021/03/12 05:10:29;;;;;;;17.75;8.13;;;;;;;-10.68;94.24;102093.30;1849446;77;21148;-85
2021/03/12 05:12:57;;;;;;;15.88;7.00;;;;;;;-10.72;92.92;102084.78;1822174;77;21160;-85
2021/03/12 05:15:29;;;;;;;20.23;8.03;;;;;;;-10.72;92.50;102092.34;1854791;77;21179;-85
2021/03/12 05:17:59;;;;;;;15.30;6.90;;;;;;;-10.70;91.88;102097.45;1859597;77;21199;-85
2021/03/12 05:20:27;;;;;;;19.62;5.97;;;;;;;-10.66;91.42;102103.04;1859682;77;22123;-85
2021/03/12 05:22:56;;;;;;;17.07;7.67;;;;;;;-10.64;90.70;102103.96;1826542;77;21061;-85
2021/03/12 05:25:24;;;;;;;13.72;6.87;;;;;;;-10.65;90.16;102100.56;1827600;77;21080;-84
2021/03/12 05:27:52;;;;;;;17.20;6.70;;;;;;;-10.65;90.27;102090.91;1793226;77;21556;-85
2021/03/12 05:30:23;;;;;;;15.60;7.42;;;;;;;-10.50;100.00;102093.97;1808924;78;21244;-86
2021/03/12 05:32:52;;;;;;;16.77;7.17;;;;;;;-10.29;100.00;102100.52;1828490;77;21189;-85
2021/03/12 05:35:21;;;;;;;16.97;8.30;;;;;;;-10.20;97.21;102097.06;1859595;77;21105;-85
2021/03/12 05:37:49;;;;;;;26.93;8.08;;;;;;;-10.22;94.16;102101.22;1859710;77;21595;-85
2021/03/12 05:40:18;;;;;;;21.35;8.38;;;;;;;-10.24;94.10;102114.54;1851890;76;21129;-85
2021/03/12 05:42:51;;;;;;;14.07;6.35;;;;;;;-10.08;99.53;102113.00;1841763;77;21521;-85
2021/03/12 05:45:21;;;;;;;20.35;7.33;;;;;;;-9.98;95.30;102116.72;1859538;77;22345;-85
2021/03/12 05:47:51;;;;;;;19.90;8.08;;;;;;;-9.95;93.11;102124.78;1841848;77;21204;-85
2021/03/12 05:50:22;;;;;;;18.70;7.90;;;;;;;-9.94;92.03;102137.84;1808745;78;21183;-86
2021/03/12 05:52:51;;;;;;;15.38;6.55;;;;;;;-9.91;90.84;102142.58;1826038;78;21600;-86
2021/03/12 05:55:20;;;;;;;17.33;7.77;;;;;;;-9.89;90.06;102138.42;1789808;80;21616;-85
2021/03/12 05:57:48;;;;;;;18.52;8.78;;;;;;;-9.87;89.43;102139.34;1789483;80;21187;-86
2021/03/12 06:00:19;;;;;;;18.42;7.67;;;;;;;-9.81;89.57;102134.07;1789409;80;21570;-85
2021/03/12 06:02:50;;;;;;;18.55;7.12;;;;;;;-9.75;89.81;102116.20;1787579;80;21483;-85
2021/03/12 06:05:31;;;;;;;17.17;8.38;;;;;;;-9.62;88.62;102082.58;1887256;76;22285;-85
2021/03/12 06:07:59;;;;;;;16.95;6.78;;;;;;;-9.64;87.56;102069.89;1848586;77;21040;-86
2021/03/12 06:10:27;;;;;;;15.53;5.97;;;;;;;-9.59;88.16;102075.95;1833935;77;21317;-85
2021/03/12 06:12:57;;;;;;;17.02;6.80;;;;;;;-9.54;86.74;102068.54;1838307;77;21194;-85
2021/03/12 06:15:38;;;;;;;15.63;6.92;;;;;;;-9.50;85.89;102066.55;1848686;77;21103;-85
2021/03/12 06:18:26;;;;;;;9.05;5.30;;;;;;;-9.44;85.96;102068.41;1842860;77;21538;-84
2021/03/12 06:20:59;;;;;;;16.52;8.15;;;;;;;-9.35;85.82;102059.45;1847654;77;21199;-85
2021/03/12 06:23:39;;;;;;;16.02;7.85;;;;;;;-9.28;85.15;102047.88;1818258;77;22117;-84
2021/03/12 06:26:21;;;;;;;11.43;5.85;;;;;;;-9.26;84.85;102047.53;1814293;77;21154;-84
2021/03/12 06:29:09;;;;;;;15.15;7.03;;;;;;;-9.27;84.92;102053.39;1814524;77;21183;-84
2021/03/12 06:31:55;;;;;;;15.45;6.83;;;;;;;-9.25;85.40;102060.57;1796609;77;21122;-85
2021/03/12 06:35:01;;;;;;;16.23;8.70;;;;;;;-9.13;86.88;102052.92;1828256;76;38087;-83
2021/03/12 06:37:49;;;;;;;14.10;7.72;;;;;;;-9.04;87.53;102050.67;1788323;79;21422;-84
2021/03/12 06:40:31;;;;;;;19.25;8.00;;;;;;;-8.77;87.28;102046.81;1888714;76;22161;-86
2021/03/12 06:43:13;;;;;;;14.20;7.00;;;;;;;-8.69;86.21;102048.27;1854794;77;21120;-86
2021/03/12 06:45:52;;;;;;;18.65;7.70;;;;;;;-8.60;85.81;102048.94;1826678;77;27081;-85
2021/03/12 06:48:33;;;;;;;18.85;7.95;;;;;;;-8.49;85.74;102065.65;1859516;77;21053;-85
2021/03/12 06:51:18;;;;;;;18.12;7.33;;;;;;;-8.43;85.04;102067.91;1720770;82;21162;-85
2021/03/12 06:53:48;;;;;;;18.60;7.25;;;;;;;-8.35;85.09;102072.31;1751015;78;21176;-85
2021/03/12 06:56:22;;;;;;;22.80;9.00;;;;;;;-8.23;85.88;102080.20;1822225;78;21141;-86
2021/03/12 06:59:00;;;;;;;16.93;7.62;;;;;;;-8.11;84.71;102090.65;1812802;78;22154;-87
2021/03/12 07:01:30;;;;;;;16.57;7.60;;;;;;;-7.99;83.14;102082.91;1817037;78;21074;-87
2021/03/12 07:04:15;;;;;;;24.27;8.48;;;;;;;-7.90;82.85;102070.50;1815991;77;21164;-86
2021/03/12 07:06:50;;;;;;;19.62;8.43;;;;;;;-7.83;82.75;102077.41;1781087;80;21079;-86
2021/03/12 07:09:21;;;;;;;17.10;8.88;;;;;;;-7.76;81.29;102082.23;1779009;80;21540;-86
2021/03/12 07:12:03;;;;;;;16.80;8.25;;;;;;;-7.71;80.47;102092.03;1792317;78;21196;-86
2021/03/12 07:14:51;;;;;;;17.40;8.43;;;;;;;-7.67;80.36;102092.96;1792484;79;21149;-86
2021/03/12 07:17:40;;;;;;;21.20;8.13;;;;;;;-7.48;81.00;102103.98;1888066;74;22918;-86
2021/03/12 07:20:14;;;;;;;;;;;;;;;-7.39;79.99;102103.75;1847571;77;21156;-88
2021/03/12 07:22:46;;;;;;;19.23;8.75;;;;;;;-7.25;79.71;102102.81;1818064;77;21270;-86
2021/03/12 07:25:19;;;;;;;20.10;7.85;;;;;;;-7.12;79.08;102093.39;1852071;77;21169;-86
2021/03/12 07:27:51;;;;;;;15.75;7.22;;;;;;;-7.01;77.28;102102.48;1851664;77;21553;-86
2021/03/12 07:30:22;;;;;;;15.68;8.45;;;;;;;-6.93;76.74;102111.52;1854755;77;21085;-86
2021/03/12 07:32:54;;;;;;;18.52;8.35;;;;;;;-6.82;76.26;102111.32;1859879;77;21165;-86
2021/03/12 07:35:26;;;;;;;15.35;7.20;;;;;;;-6.70;74.76;102118.32;1854613;77;21494;-86
2021/03/12 07:38:13;;;;;;;15.43;6.33;;;;;;;-6.55;73.57;102125.39;1872352;75;22287;-85
2021/03/12 07:40:43;;;;;;;12.80;6.70;;;;;;;-6.50;72.28;102123.80;1835957;78;21544;-87
2021/03/12 07:43:14;;;;;;;12.88;6.42;;;;;;;-6.39;71.67;102116.00;1835621;77;21375;-87
2021/03/12 07:46:03;;;;;;;13.70;6.20;;;;;;;-6.27;70.67;102102.70;1840311;77;21347;-85
2021/03/12 07:48:48;;;;;;;11.55;6.62;;;;;;;-6.12;71.00;102099.99;1838628;77;21577;-86
2021/03/12 07:51:17;;;;;;;14.18;6.95;;;;;;;-5.94;69.34;102090.55;1830411;78;21061;-86
2021/03/12 07:53:57;;;;;;;11.93;7.10;;;;;;;-5.86;67.14;102085.19;1835869;77;21057;-86
2021/03/12 07:56:53;;;;;;;10.88;6.55;;;;;;;-5.80;67.46;102070.05;1835567;77;21331;-85
2021/03/12 07:59:51;;;;;;;12.95;6.22;;;;;;;-5.71;65.95;102061.75;1840312;77;21118;-86
2021/03/12 08:02:57;;;;;;;18.12;7.58;;;;;;;-5.60;64.58;102058.10;1840420;77;21220;-85
2021/03/12 08:05:39;;;;;;;10.68;5.90;;;;;;;-5.56;64.71;102048.42;1777426;77;21156;-86
2021/03/12 08:08:37;;;;;;;10.82;6.00;;;;;;;-5.56;61.83;102053.09;1810259;78;21117;-86
2021/03/12 08:11:21;;;;;;;15.83;6.67;;;;;;;-5.52;62.43;102055.27;1836262;77;21157;-87
2021/03/12 08:14:19;;;;;;;13.10;6.40;;;;;;;-5.39;63.48;102043.61;1836909;78;21133;-83
2021/03/12 08:21:32;;;;;;;13.60;5.55;;;;;;;-5.18;60.95;102038.37;1841187;78;21173;-83
2021/03/12 08:24:09;;;;;;;14.65;6.70;;;;;;;-5.12;57.68;102022.80;1839553;78;21152;-83
2021/03/12 08:31:03;;;;;;;12.82;5.50;;;;;;;-5.08;58.41;102013.53;1841172;78;20991;-83
2021/03/12 08:41:51;;;;;;;10.58;5.53;;;;;;;-4.75;56.73;102021.95;1837646;78;21552;-83
2021/03/12 08:49:22;;;;;;;10.00;5.72;;;;;;;-4.37;56.08;102022.35;1840780;77;21089;-83
2021/03/12 08:52:22;;;;;;;9.10;5.33;;;;;;;-4.26;54.43;102032.63;1807488;78;21156;-84
2021/03/12 08:59:28;;;;;;;10.93;5.75;;;;;;;-4.21;53.11;102034.78;1840599;78;21061;-83
2021/03/12 09:01:59;;;;;;;11.50;5.97;;;;;;;-4.10;53.40;102032.33;1824361;77;21329;-83
2021/03/12 09:04:46;;;;;;;10.43;5.58;;;;;;;-4.03;53.17;102024.77;1824485;78;21145;-83
2021/03/12 09:07:55;;;;;;;8.80;5.50;;;;;;;-3.92;53.43;102027.40;1725084;82;21190;-83
2021/03/12 09:14:00;;;;;;;11.03;5.72;;;;;;;-3.75;51.68;102010.96;1825939;78;21109;-83
2021/03/12 09:25:04;;;;;;;9.05;5.58;;;;;;;-3.60;51.65;101963.52;1818668;77;21118;-83
2021/03/12 09:40:40;;;;;;;11.00;5.15;;;;;;;-3.49;53.03;101933.88;1888363;75;22079;-87
2021/03/12 09:43:11;;;;;;;9.48;5.42;;;;;;;-3.45;52.27;101941.11;1860995;76;21185;-87
2021/03/12 09:45:50;;;;;;;11.13;6.40;;;;;;;-3.37;52.04;101951.78;1861266;76;21403;-87
2021/03/12 09:48:46;;;;;;;11.00;6.20;;;;;;;-3.30;51.71;101951.80;1888605;76;22304;-88
2021/03/12 09:51:23;;;;;;;13.62;6.17;;;;;;;-3.28;52.84;101956.45;1770467;80;21132;-88
2021/03/12 09:53:53;;;;;;;12.18;6.25;;;;;;;-3.15;52.33;101945.88;1771128;79;21136;-88
2021/03/12 09:56:26;;;;;;;9.48;6.30;;;;;;;-3.09;51.30;101933.19;1783305;80;21056;-87
2021/03/12 09:58:59;;;;;;;8.70;5.58;;;;;;;-3.07;51.75;101920.88;1817071;78;21119;-87
2021/03/12 10:01:48;;;;;;;11.38;6.40;;;;;;;-3.02;51.27;101908.14;1789157;79;21119;-85
2021/03/12 10:04:36;;;;;;;15.03;6.10;;;;;;;-2.98;51.84;101904.73;1773565;80;21156;-86
2021/03/12 10:07:12;;;;;;;9.63;6.40;;;;;;;-2.94;50.83;101903.04;1737452;80;22341;-88
2021/03/12 10:09:46;;;;;;;12.40;6.53;;;;;;;-2.91;51.02;101903.89;1749355;80;21195;-85
2021/03/12 10:12:24;;;;;;;20.65;6.85;;;;;;;-2.83;50.87;101897.95;1776834;78;21591;-87
2021/03/12 10:15:07;;;;;;;9.88;5.62;;;;;;;-2.74;51.03;101906.89;1787184;80;21147;-86
2021/03/12 10:17:39;;;;;;;10.78;5.90;;;;;;;-2.63;51.14;101899.25;1786379;80;21135;-86
2021/03/12 10:20:20;;;;;;;10.90;5.80;;;;;;;-2.52;50.83;101893.73;1789840;80;21415;-86
2021/03/12 10:22:53;;;;;;;9.38;5.90;;;;;;;-2.36;50.95;101884.36;1786716;78;20956;-87
2021/03/12 10:25:37;;;;;;;11.80;6.47;;;;;;;-2.26;49.88;101875.02;1784506;79;21463;-87
2021/03/12 10:28:10;;;;;;;9.03;5.78;;;;;;;-2.20;49.83;101887.75;1789561;80;21076;-88
2021/03/12 10:30:47;;;;;;;12.03;7.28;;;;;;;-2.20;49.17;101871.61;1789584;80;21141;-87
2021/03/12 10:33:21;;;;;;;13.43;6.70;;;;;;;-2.23;49.86;101863.09;1789553;80;21251;-87
2021/03/12 10:35:59;;;;;;;10.78;6.45;;;;;;;-2.21;50.17;101869.47;1789487;79;21525;-86
2021/03/12 10:38:30;;;;;;;10.43;6.53;;;;;;;-2.17;50.25;101862.24;1789483;80;21167;-86
2021/03/12 10:41:08;;;;;;;9.43;5.90;;;;;;;-2.11;49.93;101854.97;1784911;80;21228;-86
2021/03/12 10:43:36;;;;;;;16.45;6.70;;;;;;;-2.12;48.09;101861.80;1789594;80;21192;-87
2021/03/12 10:46:07;;;;;;;10.48;5.78;;;;;;;-2.12;48.77;101863.48;1789510;79;21719;-86
2021/03/12 10:48:47;;;;;;;9.93;6.30;;;;;;;-2.11;49.23;101858.39;1792121;79;21192;-86
2021/03/12 10:51:17;;;;;;;9.20;6.05;;;;;;;-2.01;49.36;101851.55;1798282;79;21201;-86
2021/03/12 10:53:49;;;;;;;10.30;6.67;;;;;;;-1.92;49.73;101850.66;1797019;79;28237;-86
2021/03/12 10:56:17;;;;;;;11.45;7.05;;;;;;;-1.82;49.78;101848.95;1831322;78;21166;-86
2021/03/12 10:58:48;;;;;;;11.45;6.53;;;;;;;-1.77;50.08;101843.39;1830867;78;21345;-86
2021/03/12 11:01:23;;;;;;;9.70;5.62;;;;;;;-1.67;50.16;101839.08;1797916;79;21578;-86
2021/03/12 11:03:56;;;;;;;16.30;6.95;;;;;;;-1.60;47.95;101827.56;1830152;78;21135;-87
2021/03/12 11:06:31;;;;;;;9.80;6.33;;;;;;;-1.58;49.37;101819.88;1830591;78;21126;-86
2021/03/12 11:09:09;;;;;;;11.43;7.10;;;;;;;-1.54;50.19;101808.80;1797915;79;21154;-86
2021/03/12 11:11:37;;;;;;;12.47;6.60;;;;;;;-1.47;49.93;101805.77;1824683;78;21349;-86
2021/03/12 11:14:07;;;;;;;11.88;6.78;;;;;;;-1.40;48.24;101793.81;1819420;78;21185;-86
2021/03/12 11:16:36;;;;;;;10.58;6.60;;;;;;;-1.30;49.12;101782.68;1779631;80;21146;-86
2021/03/12 11:19:06;;;;;;;12.23;5.80;;;;;;;-1.14;49.63;101768.06;1790073;79;21213;-86
2021/03/12 11:21:35;;;;;;;12.40;6.67;;;;;;;-0.91;48.58;101769.16;1827716;78;21170;-86
2021/03/12 11:24:03;;;;;;;10.48;6.28;;;;;;;-0.78;47.48;101765.20;1790112;79;21921;-87
2021/03/12 11:26:31;;;;;;;10.60;6.33;;;;;;;-0.70;47.31;101750.22;1804761;78;21190;-86
2021/03/12 11:28:59;;;;;;;11.73;6.53;;;;;;;-0.66;46.49;101745.91;1785686;79;21555;-86
2021/03/12 11:31:27;;;;;;;10.25;6.53;;;;;;;-0.77;46.06;101735.80;1823311;78;21149;-86
2021/03/12 11:33:56;;;;;;;14.68;7.00;;;;;;;-0.92;46.12;101734.22;1804107;78;21206;-86
2021/03/12 11:36:24;;;;;;;9.55;6.20;;;;;;;-1.06;46.56;101732.22;1797818;79;21606;-86
2021/03/12 11:38:52;;;;;;;10.82;5.97;;;;;;;-1.18;47.46;101731.45;1787452;79;21138;-86
2021/03/12 11:41:20;;;;;;;10.45;6.20;;;;;;;-1.20;46.73;101728.05;1793703;79;21135;-85
2021/03/12 11:43:51;;;;;;;13.80;6.20;;;;;;;-1.20;47.77;101730.61;1796144;79;21201;-86
2021/03/12 11:46:22;;;;;;;12.50;6.55;;;;;;;-1.17;47.28;101727.20;1764748;81;21578;-85
2021/03/12 11:48:52;;;;;;;10.40;5.95;;;;;;;-1.18;47.66;101726.34;1789193;79;22186;-86
2021/03/12 11:51:22;;;;;;;9.08;6.35;;;;;;;-1.17;47.38;101737.43;1768531;79;21198;-86
2021/03/12 11:53:54;;;;;;;10.23;6.10;;;;;;;-1.21;47.04;101725.11;1820044;78;21075;-86
2021/03/12 11:56:26;;;;;;;9.63;6.22;;;;;;;-1.24;46.90;101727.67;1788715;80;21179;-85
2021/03/12 11:58:54;;;;;;;13.08;6.45;;;;;;;-1.31;46.80;101724.31;1803408;78;21126;-85
2021/03/12 12:01:23;;;;;;;12.55;6.30;;;;;;;-1.31;47.51;101710.70;1798247;78;21608;-85
2021/03/12 12:08:14;;;;;;;12.20;6.22;;;;;;;-1.11;46.27;101696.47;1758504;81;21146;-83
2021/03/12 12:15:08;;;;;;;9.25;5.03;;;;;;;-1.05;46.22;101688.73;1752623;81;21141;-83
2021/03/12 12:21:41;;;;;;;6.72;4.53;;;;;;;-1.13;45.06;101672.20;1789747;78;21168;-83
2021/03/12 12:28:33;;;;;;;11.18;4.62;;;;;;;-1.19;44.57;101654.34;1789744;80;21567;-83
2021/03/12 12:35:25;;;;;;;8.15;5.42;;;;;;;-1.26;45.69;101646.32;1756873;81;21214;-84
2021/03/12 12:42:17;;;;;;;7.97;4.83;;;;;;;-1.24;47.00;101638.66;1758573;81;21142;-84
2021/03/12 12:49:10;;;;;;;9.85;5.47;;;;;;;-1.30;47.41;101640.39;1764487;78;21163;-83
2021/03/12 12:52:00;;;;;;;10.63;5.80;;;;;;;-1.34;47.92;101637.88;1777257;79;21111;-84
2021/03/12 12:58:52;;;;;;;13.10;6.67;;;;;;;-1.33;46.88;101637.88;1798248;79;21218;-83
2021/03/12 13:05:46;;;;;;;15.23;6.70;;;;;;;-1.19;48.34;101644.56;1798744;79;21475;-84
2021/03/12 13:12:38;;;;;;;15.95;4.83;;;;;;;-1.11;49.50;101655.56;1763663;81;21087;-84
2021/03/12 13:19:31;;;;;;;12.53;5.60;;;;;;;-1.00;47.24;101648.62;1804815;78;21226;-84
2021/03/12 13:26:24;;;;;;;8.18;5.10;;;;;;;-0.92;47.74;101642.16;1798693;79;21158;-84
2021/03/12 13:33:16;;;;;;;9.48;5.05;;;;;;;-0.92;46.31;101631.93;1761147;81;21364;-84